sensor_id;sensor_type;location;lat;lon;timestamp;pressure;altitude;pressure_sealevel;temperature;humidity
6198;BME280;3132;42.622;23.328;2023-05-19T00:01:58;93048.06;;;11.06;100.00
6198;BME280;3132;42.622;23.328;2023-05-19T00:04:30;93050.22;;;10.94;100.00
6198;BME280;3132;42.622;23.328;2023-05-19T00:06:58;93047.09;;;10.92;100.00
6198;BME280;3132;42.622;23.328;2023-05-19T00:09:23;93042.59;;;11.02;100.00
6198;BME280;3132;42.622;23.328;2023-05-19T00:11:49;93046.31;;;10.91;100.00
6198;BME280;3132;42.622;23.328;2023-05-19T00:14:15;93049.94;;;10.95;100.00
6198;BME280;3132;42.622;23.328;2023-05-19T00:16:41;93037.50;;;10.77;100.00
6198;BME280;3132;42.622;23.328;2023-05-19T00:19:06;93042.16;;;10.80;100.00
6198;BME280;3132;42.622;23.328;2023-05-19T00:21:36;93026.94;;;10.97;100.00
6198;BME280;3132;42.622;23.328;2023-05-19T00:24:03;93033.75;;;10.98;100.00
6198;BME280;3132;42.622;23.328;2023-05-19T00:26:28;93015.50;;;10.83;100.00
6198;BME280;3132;42.622;23.328;2023-05-19T00:28:54;93017.09;;;10.84;100.00
6198;BME280;3132;42.622;23.328;2023-05-19T00:31:19;93020.19;;;10.86;100.00
6198;BME280;3132;42.622;23.328;2023-05-19T00:33:45;93024.94;;;10.79;100.00
6198;BME280;3132;42.622;23.328;2023-05-19T00:36:10;93018.34;;;10.97;100.00
6198;BME280;3132;42.622;23.328;2023-05-19T00:38:36;93028.69;;;11.12;100.00
6198;BME280;3132;42.622;23.328;2023-05-19T00:41:03;93029.47;;;11.12;100.00
6198;BME280;3132;42.622;23.328;2023-05-19T00:43:28;93039.94;;;11.12;100.00
6198;BME280;3132;42.622;23.328;2023-05-19T00:45:55;93020.09;;;11.06;100.00
6198;BME280;3132;42.622;23.328;2023-05-19T00:48:21;93017.97;;;11.08;100.00
6198;BME280;3132;42.622;23.328;2023-05-19T00:50:47;93019.84;;;11.08;100.00
6198;BME280;3132;42.622;23.328;2023-05-19T00:53:13;93020.97;;;10.92;100.00
6198;BME280;3132;42.622;23.328;2023-05-19T00:55:39;93018.66;;;10.80;100.00
6198;BME280;3132;42.622;23.328;2023-05-19T00:58:06;92998.34;;;10.72;100.00
6198;BME280;3132;42.622;23.328;2023-05-19T01:00:33;93020.59;;;11.08;100.00
6198;BME280;3132;42.622;23.328;2023-05-19T01:02:59;93018.19;;;11.17;100.00
6198;BME280;3132;42.622;23.328;2023-05-19T01:05:25;93019.50;;;11.14;100.00
6198;BME280;3132;42.622;23.328;2023-05-19T01:07:51;93018.56;;;11.00;100.00
6198;BME280;3132;42.622;23.328;2023-05-19T01:10:19;93020.91;;;11.02;100.00
6198;BME280;3132;42.622;23.328;2023-05-19T01:12:45;93022.19;;;11.04;100.00
6198;BME280;3132;42.622;23.328;2023-05-19T01:15:11;93014.81;;;11.11;100.00
6198;BME280;3132;42.622;23.328;2023-05-19T01:17:53;93014.81;;;11.11;100.00
6198;BME280;3132;42.622;23.328;2023-05-19T01:20:37;93027.19;;;11.01;100.00
6198;BME280;3132;42.622;23.328;2023-05-19T01:23:43;93026.84;;;10.64;100.00
6198;BME280;3132;42.622;23.328;2023-05-19T01:32:00;93026.66;;;10.50;100.00
6198;BME280;3132;42.622;23.328;2023-05-19T01:34:28;93006.88;;;10.34;100.00
6198;BME280;3132;42.622;23.328;2023-05-19T01:36:56;93012.56;;;10.41;100.00
6198;BME280;3132;42.622;23.328;2023-05-19T01:39:23;93011.09;;;10.30;100.00
6198;BME280;3132;42.622;23.328;2023-05-19T01:41:50;93003.25;;;10.30;100.00
6198;BME280;3132;42.622;23.328;2023-05-19T01:44:16;93002.53;;;10.15;100.00
6198;BME280;3132;42.622;23.328;2023-05-19T01:46:43;93016.31;;;10.25;100.00
6198;BME280;3132;42.622;23.328;2023-05-19T01:49:09;93015.50;;;10.30;100.00
6198;BME280;3132;42.622;23.328;2023-05-19T01:51:35;92994.97;;;10.13;100.00
6198;BME280;3132;42.622;23.328;2023-05-19T01:54:00;93020.69;;;10.40;100.00
6198;BME280;3132;42.622;23.328;2023-05-19T01:56:40;93020.69;;;10.40;100.00
6198;BME280;3132;42.622;23.328;2023-05-19T01:59:15;93009.53;;;10.19;100.00
6198;BME280;3132;42.622;23.328;2023-05-19T02:01:50;93030.84;;;10.46;100.00
6198;BME280;3132;42.622;23.328;2023-05-19T02:04:40;93029.81;;;10.42;100.00
6198;BME280;3132;42.622;23.328;2023-05-19T02:07:24;93030.84;;;10.41;100.00
6198;BME280;3132;42.622;23.328;2023-05-19T02:09:55;93025.41;;;10.38;100.00
6198;BME280;3132;42.622;23.328;2023-05-19T02:12:31;93023.72;;;10.62;100.00
6198;BME280;3132;42.622;23.328;2023-05-19T02:15:08;93024.50;;;10.62;100.00
6198;BME280;3132;42.622;23.328;2023-05-19T02:17:37;93030.97;;;10.75;100.00
6198;BME280;3132;42.622;23.328;2023-05-19T02:20:06;93027.66;;;10.64;100.00
6198;BME280;3132;42.622;23.328;2023-05-19T02:22:33;93020.13;;;10.53;100.00
6198;BME280;3132;42.622;23.328;2023-05-19T02:24:59;93026.66;;;10.50;100.00
6198;BME280;3132;42.622;23.328;2023-05-19T02:27:24;93023.56;;;10.38;100.00
6198;BME280;3132;42.622;23.328;2023-05-19T02:29:50;93024.13;;;10.25;100.00
6198;BME280;3132;42.622;23.328;2023-05-19T02:32:16;93030.63;;;10.33;100.00
6198;BME280;3132;42.622;23.328;2023-05-19T02:34:42;93033.56;;;10.11;100.00
6198;BME280;3132;42.622;23.328;2023-05-19T02:37:13;93036.44;;;10.15;100.00
6198;BME280;3132;42.622;23.328;2023-05-19T02:39:40;93029.88;;;10.22;100.00
6198;BME280;3132;42.622;23.328;2023-05-19T02:42:05;93037.47;;;10.19;100.00
6198;BME280;3132;42.622;23.328;2023-05-19T02:44:30;93028.56;;;10.25;100.00
6198;BME280;3132;42.622;23.328;2023-05-19T02:46:56;93035.13;;;10.02;100.00
6198;BME280;3132;42.622;23.328;2023-05-19T02:49:21;93016.34;;;10.00;100.00
6198;BME280;3132;42.622;23.328;2023-05-19T02:51:47;93032.50;;;10.22;100.00
6198;BME280;3132;42.622;23.328;2023-05-19T02:54:12;93026.47;;;10.27;100.00
6198;BME280;3132;42.622;23.328;2023-05-19T02:56:37;93034.88;;;10.04;100.00
6198;BME280;3132;42.622;23.328;2023-05-19T02:59:03;93029.13;;;9.97;100.00
6198;BME280;3132;42.622;23.328;2023-05-19T03:01:28;93042.41;;;10.10;100.00
6198;BME280;3132;42.622;23.328;2023-05-19T03:03:54;93038.25;;;10.09;100.00
6198;BME280;3132;42.622;23.328;2023-05-19T03:06:19;93032.75;;;10.06;100.00
6198;BME280;3132;42.622;23.328;2023-05-19T03:08:47;93038.28;;;9.89;100.00
6198;BME280;3132;42.622;23.328;2023-05-19T03:11:13;93038.75;;;10.06;100.00
6198;BME280;3132;42.622;23.328;2023-05-19T03:13:39;93032.00;;;10.00;100.00
6198;BME280;3132;42.622;23.328;2023-05-19T03:16:05;93045.28;;;10.04;100.00
6198;BME280;3132;42.622;23.328;2023-05-19T03:18:32;93045.56;;;10.02;100.00
6198;BME280;3132;42.622;23.328;2023-05-19T03:20:58;93023.91;;;10.12;100.00
6198;BME280;3132;42.622;23.328;2023-05-19T03:23:23;93034.25;;;10.37;100.00
6198;BME280;3132;42.622;23.328;2023-05-19T03:25:49;93038.81;;;10.75;100.00
6198;BME280;3132;42.622;23.328;2023-05-19T03:28:15;93054.50;;;10.75;100.00
6198;BME280;3132;42.622;23.328;2023-05-19T03:30:41;93049.75;;;10.82;100.00
6198;BME280;3132;42.622;23.328;2023-05-19T03:33:06;93037.03;;;10.65;100.00
6198;BME280;3132;42.622;23.328;2023-05-19T03:35:32;93043.41;;;10.44;100.00
6198;BME280;3132;42.622;23.328;2023-05-19T03:37:57;93038.66;;;10.51;100.00
6198;BME280;3132;42.622;23.328;2023-05-19T03:40:22;93043.09;;;11.04;100.00
6198;BME280;3132;42.622;23.328;2023-05-19T03:42:49;93052.00;;;11.03;100.00
6198;BME280;3132;42.622;23.328;2023-05-19T03:45:14;93051.88;;;11.23;100.00
6198;BME280;3132;42.622;23.328;2023-05-19T03:47:40;93050.09;;;11.53;100.00
6198;BME280;3132;42.622;23.328;2023-05-19T03:50:06;93059.06;;;11.80;100.00
6198;BME280;3132;42.622;23.328;2023-05-19T03:52:31;93054.66;;;11.76;100.00
6198;BME280;3132;42.622;23.328;2023-05-19T03:54:57;93064.56;;;11.79;100.00
6198;BME280;3132;42.622;23.328;2023-05-19T03:57:23;93045.94;;;11.85;100.00
6198;BME280;3132;42.622;23.328;2023-05-19T03:59:48;93024.88;;;11.72;100.00
6198;BME280;3132;42.622;23.328;2023-05-19T04:02:13;93052.59;;;12.01;100.00
6198;BME280;3132;42.622;23.328;2023-05-19T04:04:39;93071.09;;;12.10;100.00
6198;BME280;3132;42.622;23.328;2023-05-19T04:07:04;93070.22;;;12.19;100.00
6198;BME280;3132;42.622;23.328;2023-05-19T04:09:31;93063.09;;;11.68;100.00
6198;BME280;3132;42.622;23.328;2023-05-19T04:11:59;93068.19;;;12.11;100.00
6198;BME280;3132;42.622;23.328;2023-05-19T04:14:25;93076.31;;;12.10;100.00
6198;BME280;3132;42.622;23.328;2023-05-19T04:16:50;93074.22;;;12.12;100.00
6198;BME280;3132;42.622;23.328;2023-05-19T04:19:16;93074.94;;;12.46;100.00
6198;BME280;3132;42.622;23.328;2023-05-19T04:21:41;93079.06;;;12.52;100.00
6198;BME280;3132;42.622;23.328;2023-05-19T04:24:07;93049.00;;;12.21;100.00
6198;BME280;3132;42.622;23.328;2023-05-19T04:26:32;93081.41;;;12.77;100.00
6198;BME280;3132;42.622;23.328;2023-05-19T04:28:59;93082.94;;;12.78;100.00
6198;BME280;3132;42.622;23.328;2023-05-19T04:31:24;93084.63;;;12.92;100.00
6198;BME280;3132;42.622;23.328;2023-05-19T04:33:51;93080.50;;;13.10;100.00
6198;BME280;3132;42.622;23.328;2023-05-19T04:36:17;93078.59;;;13.16;100.00
6198;BME280;3132;42.622;23.328;2023-05-19T04:38:45;93100.22;;;13.63;99.04
6198;BME280;3132;42.622;23.328;2023-05-19T04:41:11;93092.03;;;13.28;98.61
6198;BME280;3132;42.622;23.328;2023-05-19T04:43:37;93102.28;;;13.48;97.53
6198;BME280;3132;42.622;23.328;2023-05-19T04:46:09;93098.13;;;13.23;99.16
6198;BME280;3132;42.622;23.328;2023-05-19T04:48:38;93104.19;;;13.61;97.93
6198;BME280;3132;42.622;23.328;2023-05-19T04:51:07;93099.81;;;14.07;95.88
6198;BME280;3132;42.622;23.328;2023-05-19T04:53:32;93105.38;;;14.37;91.82
6198;BME280;3132;42.622;23.328;2023-05-19T04:55:58;93101.66;;;14.38;90.03
6198;BME280;3132;42.622;23.328;2023-05-19T04:58:25;93109.28;;;15.48;87.25
6198;BME280;3132;42.622;23.328;2023-05-19T05:00:52;93119.50;;;16.74;81.56
6198;BME280;3132;42.622;23.328;2023-05-19T05:03:20;93120.31;;;16.30;81.50
6198;BME280;3132;42.622;23.328;2023-05-19T05:05:47;93106.41;;;14.96;83.97
6198;BME280;3132;42.622;23.328;2023-05-19T05:08:12;93115.97;;;15.68;84.55
6198;BME280;3132;42.622;23.328;2023-05-19T05:10:39;93097.19;;;15.47;86.28
6198;BME280;3132;42.622;23.328;2023-05-19T05:13:05;93109.69;;;15.15;87.05
6198;BME280;3132;42.622;23.328;2023-05-19T05:15:31;93111.84;;;15.40;86.35
6198;BME280;3132;42.622;23.328;2023-05-19T05:17:56;93112.78;;;15.30;83.78
6198;BME280;3132;42.622;23.328;2023-05-19T05:20:22;93114.59;;;16.81;80.63
6198;BME280;3132;42.622;23.328;2023-05-19T05:22:48;93119.78;;;17.50;74.53
6198;BME280;3132;42.622;23.328;2023-05-19T05:25:14;93104.97;;;16.32;79.66
6198;BME280;3132;42.622;23.328;2023-05-19T05:27:40;93122.91;;;17.52;74.61
6198;BME280;3132;42.622;23.328;2023-05-19T05:30:07;93128.03;;;17.75;73.00
6198;BME280;3132;42.622;23.328;2023-05-19T05:32:33;93119.69;;;17.90;75.31
6198;BME280;3132;42.622;23.328;2023-05-19T05:34:58;93119.66;;;17.64;76.46
6198;BME280;3132;42.622;23.328;2023-05-19T05:37:23;93122.16;;;17.78;75.46
6198;BME280;3132;42.622;23.328;2023-05-19T05:39:49;93136.44;;;18.62;72.60
6198;BME280;3132;42.622;23.328;2023-05-19T05:42:14;93134.66;;;19.38;68.52
6198;BME280;3132;42.622;23.328;2023-05-19T05:44:40;93125.16;;;19.86;66.48
6198;BME280;3132;42.622;23.328;2023-05-19T05:47:06;93145.25;;;21.14;61.28
6198;BME280;3132;42.622;23.328;2023-05-19T05:49:32;93140.88;;;25.01;49.02
6198;BME280;3132;42.622;23.328;2023-05-19T05:52:01;93140.25;;;27.24;43.01
6198;BME280;3132;42.622;23.328;2023-05-19T05:54:27;93143.50;;;27.40;40.92
6198;BME280;3132;42.622;23.328;2023-05-19T05:56:53;93144.41;;;28.59;39.00
6198;BME280;3132;42.622;23.328;2023-05-19T05:59:18;93144.03;;;28.68;38.02
6198;BME280;3132;42.622;23.328;2023-05-19T06:01:44;93153.31;;;28.16;38.81
6198;BME280;3132;42.622;23.328;2023-05-19T06:04:10;93154.19;;;28.31;38.92
6198;BME280;3132;42.622;23.328;2023-05-19T06:06:35;93163.88;;;30.51;35.43
6198;BME280;3132;42.622;23.328;2023-05-19T06:09:02;93160.38;;;30.75;33.00
6198;BME280;3132;42.622;23.328;2023-05-19T06:11:28;93166.44;;;29.03;35.19
6198;BME280;3132;42.622;23.328;2023-05-19T06:13:53;93151.69;;;26.54;38.41
6198;BME280;3132;42.622;23.328;2023-05-19T06:16:19;93154.75;;;27.16;38.16
6198;BME280;3132;42.622;23.328;2023-05-19T06:18:44;93142.06;;;28.61;36.09
6198;BME280;3132;42.622;23.328;2023-05-19T06:21:09;93166.00;;;28.91;36.41
6198;BME280;3132;42.622;23.328;2023-05-19T06:23:37;93160.53;;;28.59;36.68
6198;BME280;3132;42.622;23.328;2023-05-19T06:26:03;93165.47;;;30.10;33.25
6198;BME280;3132;42.622;23.328;2023-05-19T06:28:28;93163.94;;;29.84;33.45
6198;BME280;3132;42.622;23.328;2023-05-19T06:30:54;93164.47;;;28.86;35.08
6198;BME280;3132;42.622;23.328;2023-05-19T06:33:19;93168.50;;;29.59;32.55
6198;BME280;3132;42.622;23.328;2023-05-19T06:35:44;93154.38;;;26.54;39.11
6198;BME280;3132;42.622;23.328;2023-05-19T06:38:10;93142.91;;;24.32;42.67
6198;BME280;3132;42.622;23.328;2023-05-19T06:40:35;93132.69;;;20.91;55.82
6198;BME280;3132;42.622;23.328;2023-05-19T06:43:01;93131.41;;;20.64;55.98
6198;BME280;3132;42.622;23.328;2023-05-19T06:45:27;93131.25;;;19.87;56.84
6198;BME280;3132;42.622;23.328;2023-05-19T06:47:52;93138.53;;;18.94;60.52
6198;BME280;3132;42.622;23.328;2023-05-19T06:50:18;93129.28;;;17.69;66.81
6198;BME280;3132;42.622;23.328;2023-05-19T06:52:44;93134.13;;;18.09;64.20
6198;BME280;3132;42.622;23.328;2023-05-19T06:55:11;93131.50;;;18.01;64.58
6198;BME280;3132;42.622;23.328;2023-05-19T06:57:36;93137.22;;;16.29;70.29
6198;BME280;3132;42.622;23.328;2023-05-19T07:00:02;93137.13;;;16.65;69.70
6198;BME280;3132;42.622;23.328;2023-05-19T07:02:28;93139.13;;;16.90;73.30
6198;BME280;3132;42.622;23.328;2023-05-19T07:04:53;93149.25;;;16.22;71.45
6198;BME280;3132;42.622;23.328;2023-05-19T07:07:19;93145.97;;;16.60;73.50
6198;BME280;3132;42.622;23.328;2023-05-19T07:09:44;93132.53;;;17.09;73.20
6198;BME280;3132;42.622;23.328;2023-05-19T07:12:10;93133.84;;;17.37;68.98
6198;BME280;3132;42.622;23.328;2023-05-19T07:14:35;93142.56;;;16.99;69.91
6198;BME280;3132;42.622;23.328;2023-05-19T07:17:03;93153.03;;;17.51;72.01
6198;BME280;3132;42.622;23.328;2023-05-19T07:19:28;93144.84;;;18.30;68.21
6198;BME280;3132;42.622;23.328;2023-05-19T07:21:54;93149.38;;;18.46;69.11
6198;BME280;3132;42.622;23.328;2023-05-19T07:24:21;93151.66;;;17.23;71.07
6198;BME280;3132;42.622;23.328;2023-05-19T07:26:46;93145.47;;;17.84;68.97
6198;BME280;3132;42.622;23.328;2023-05-19T07:29:12;93153.28;;;18.15;66.34
6198;BME280;3132;42.622;23.328;2023-05-19T07:31:37;93147.34;;;18.01;68.77
6198;BME280;3132;42.622;23.328;2023-05-19T07:34:03;93165.00;;;18.94;63.78
6198;BME280;3132;42.622;23.328;2023-05-19T07:36:28;93159.63;;;19.28;63.04
6198;BME280;3132;42.622;23.328;2023-05-19T07:38:53;93165.06;;;18.77;63.61
6198;BME280;3132;42.622;23.328;2023-05-19T07:41:19;93158.56;;;18.32;68.17
6198;BME280;3132;42.622;23.328;2023-05-19T07:43:46;93158.53;;;17.33;66.06
6198;BME280;3132;42.622;23.328;2023-05-19T07:46:11;93152.47;;;18.23;63.52
6198;BME280;3132;42.622;23.328;2023-05-19T07:48:36;93167.69;;;18.77;62.09
6198;BME280;3132;42.622;23.328;2023-05-19T07:51:02;93149.50;;;18.67;62.03
6198;BME280;3132;42.622;23.328;2023-05-19T07:53:27;93154.50;;;18.09;69.65
6198;BME280;3132;42.622;23.328;2023-05-19T07:55:53;93148.56;;;18.12;73.91
6198;BME280;3132;42.622;23.328;2023-05-19T07:58:18;93149.84;;;18.40;70.79
6198;BME280;3132;42.622;23.328;2023-05-19T08:00:44;93154.47;;;18.26;64.18
6198;BME280;3132;42.622;23.328;2023-05-19T08:03:10;93150.78;;;18.27;64.53
6198;BME280;3132;42.622;23.328;2023-05-19T08:05:36;93160.56;;;18.01;66.78
6198;BME280;3132;42.622;23.328;2023-05-19T08:08:02;93158.50;;;17.81;65.10
6198;BME280;3132;42.622;23.328;2023-05-19T08:10:28;93147.91;;;17.63;65.92
6198;BME280;3132;42.622;23.328;2023-05-19T08:12:53;93149.06;;;17.40;66.39
6198;BME280;3132;42.622;23.328;2023-05-19T08:15:19;93160.81;;;17.56;69.37
6198;BME280;3132;42.622;23.328;2023-05-19T08:17:44;93151.25;;;17.38;72.42
6198;BME280;3132;42.622;23.328;2023-05-19T08:20:10;93157.44;;;17.90;68.87
6198;BME280;3132;42.622;23.328;2023-05-19T08:22:39;93155.72;;;18.03;70.54
6198;BME280;3132;42.622;23.328;2023-05-19T08:25:04;93159.78;;;18.60;70.09
6198;BME280;3132;42.622;23.328;2023-05-19T08:27:31;93157.72;;;18.91;66.00
6198;BME280;3132;42.622;23.328;2023-05-19T08:29:56;93158.16;;;18.93;62.42
6198;BME280;3132;42.622;23.328;2023-05-19T08:32:22;93157.16;;;18.43;66.35
6198;BME280;3132;42.622;23.328;2023-05-19T08:34:48;93155.91;;;18.32;65.17
6198;BME280;3132;42.622;23.328;2023-05-19T08:37:13;93156.50;;;18.37;65.34
6198;BME280;3132;42.622;23.328;2023-05-19T08:39:39;93159.78;;;18.26;64.16
6198;BME280;3132;42.622;23.328;2023-05-19T08:42:04;93161.66;;;18.25;65.77
6198;BME280;3132;42.622;23.328;2023-05-19T08:44:32;93155.28;;;18.09;69.42
6198;BME280;3132;42.622;23.328;2023-05-19T08:47:02;93153.72;;;18.59;69.79
6198;BME280;3132;42.622;23.328;2023-05-19T08:49:31;93152.09;;;18.92;67.13
6198;BME280;3132;42.622;23.328;2023-05-19T08:52:05;93142.47;;;18.71;62.72
6198;BME280;3132;42.622;23.328;2023-05-19T08:54:42;93145.19;;;18.45;62.63
6198;BME280;3132;42.622;23.328;2023-05-19T08:57:10;93142.66;;;18.66;65.81
6198;BME280;3132;42.622;23.328;2023-05-19T08:59:36;93137.97;;;19.17;67.64
6198;BME280;3132;42.622;23.328;2023-05-19T09:02:02;93152.59;;;19.61;63.83
6198;BME280;3132;42.622;23.328;2023-05-19T09:04:28;93160.84;;;19.60;64.39
6198;BME280;3132;42.622;23.328;2023-05-19T09:06:54;93158.63;;;19.91;61.70
6198;BME280;3132;42.622;23.328;2023-05-19T09:09:19;93153.56;;;19.86;62.63
6198;BME280;3132;42.622;23.328;2023-05-19T09:11:45;93152.09;;;19.68;64.08
6198;BME280;3132;42.622;23.328;2023-05-19T09:14:11;93150.22;;;19.68;64.96
6198;BME280;3132;42.622;23.328;2023-05-19T09:16:36;93109.88;;;19.42;63.74
6198;BME280;3132;42.622;23.328;2023-05-19T09:19:03;93145.19;;;19.46;63.40
6198;BME280;3132;42.622;23.328;2023-05-19T09:21:29;93120.41;;;19.13;66.56
6198;BME280;3132;42.622;23.328;2023-05-19T09:23:56;93141.47;;;19.01;66.46
6198;BME280;3132;42.622;23.328;2023-05-19T09:26:22;93138.53;;;18.94;64.74
6198;BME280;3132;42.622;23.328;2023-05-19T09:28:48;93124.94;;;18.58;63.31
6198;BME280;3132;42.622;23.328;2023-05-19T09:31:13;93134.16;;;19.73;62.79
6198;BME280;3132;42.622;23.328;2023-05-19T09:33:40;93135.03;;;19.19;67.02
6198;BME280;3132;42.622;23.328;2023-05-19T09:36:07;93131.50;;;19.44;60.83
6198;BME280;3132;42.622;23.328;2023-05-19T09:38:34;93141.13;;;19.78;62.83
6198;BME280;3132;42.622;23.328;2023-05-19T09:41:00;93137.03;;;20.09;60.68
6198;BME280;3132;42.622;23.328;2023-05-19T09:43:27;93145.28;;;20.28;58.72
6198;BME280;3132;42.622;23.328;2023-05-19T09:48:26;93135.38;;;19.76;60.15
6198;BME280;3132;42.622;23.328;2023-05-19T09:50:52;93128.28;;;19.88;60.50
6198;BME280;3132;42.622;23.328;2023-05-19T09:53:18;93127.53;;;19.21;64.05
6198;BME280;3132;42.622;23.328;2023-05-19T09:55:45;93140.56;;;19.93;61.87
6198;BME280;3132;42.622;23.328;2023-05-19T09:58:15;93134.03;;;19.90;57.07
6198;BME280;3132;42.622;23.328;2023-05-19T10:00:41;93133.03;;;19.74;59.38
6198;BME280;3132;42.622;23.328;2023-05-19T10:03:08;93122.38;;;19.62;61.29
6198;BME280;3132;42.622;23.328;2023-05-19T10:05:34;93122.19;;;19.67;58.61
6198;BME280;3132;42.622;23.328;2023-05-19T10:08:00;93135.06;;;19.98;57.45
6198;BME280;3132;42.622;23.328;2023-05-19T10:10:27;93124.13;;;19.99;57.39
6198;BME280;3132;42.622;23.328;2023-05-19T10:12:54;93127.16;;;19.89;58.97
6198;BME280;3132;42.622;23.328;2023-05-19T10:15:19;93120.50;;;20.04;58.89
6198;BME280;3132;42.622;23.328;2023-05-19T10:17:45;93102.59;;;19.80;60.51
6198;BME280;3132;42.622;23.328;2023-05-19T10:20:14;93126.53;;;19.72;54.90
6198;BME280;3132;42.622;23.328;2023-05-19T10:22:41;93128.75;;;19.32;59.44
6198;BME280;3132;42.622;23.328;2023-05-19T10:25:08;93121.78;;;19.19;57.85
6198;BME280;3132;42.622;23.328;2023-05-19T10:27:40;93115.97;;;19.26;58.84
6198;BME280;3132;42.622;23.328;2023-05-19T10:30:14;93123.03;;;19.22;60.33
6198;BME280;3132;42.622;23.328;2023-05-19T10:32:42;93105.66;;;19.41;61.49
6198;BME280;3132;42.622;23.328;2023-05-19T10:41:44;93104.69;;;19.46;61.77
6198;BME280;3132;42.622;23.328;2023-05-19T10:46:54;93100.81;;;20.79;53.74
6198;BME280;3132;42.622;23.328;2023-05-19T10:49:20;93109.81;;;20.98;52.45
6198;BME280;3132;42.622;23.328;2023-05-19T10:51:47;93104.56;;;21.10;51.45
6198;BME280;3132;42.622;23.328;2023-05-19T10:54:12;93101.69;;;20.83;51.23
6198;BME280;3132;42.622;23.328;2023-05-19T10:56:42;93100.34;;;20.32;52.91
6198;BME280;3132;42.622;23.328;2023-05-19T10:59:31;93101.28;;;20.15;54.90
6198;BME280;3132;42.622;23.328;2023-05-19T11:01:56;93103.53;;;19.84;55.97
6198;BME280;3132;42.622;23.328;2023-05-19T11:04:48;93102.78;;;19.75;55.57
6198;BME280;3132;42.622;23.328;2023-05-19T11:07:21;93085.00;;;19.55;59.34
6198;BME280;3132;42.622;23.328;2023-05-19T11:09:50;93093.03;;;19.88;59.02
6198;BME280;3132;42.622;23.328;2023-05-19T11:12:19;93097.31;;;20.01;54.92
6198;BME280;3132;42.622;23.328;2023-05-19T11:14:46;93098.84;;;20.43;55.89
6198;BME280;3132;42.622;23.328;2023-05-19T11:17:13;93080.38;;;20.79;53.03
6198;BME280;3132;42.622;23.328;2023-05-19T11:19:51;93098.56;;;21.13;51.59
6198;BME280;3132;42.622;23.328;2023-05-19T11:22:16;93097.00;;;21.12;48.13
6198;BME280;3132;42.622;23.328;2023-05-19T11:29:52;93084.94;;;21.75;47.12
6198;BME280;3132;42.622;23.328;2023-05-19T11:32:25;93085.72;;;21.75;46.42
6198;BME280;3132;42.622;23.328;2023-05-19T11:34:51;93075.66;;;21.45;50.60
6198;BME280;3132;42.622;23.328;2023-05-19T11:37:17;93073.38;;;21.95;51.37
6198;BME280;3132;42.622;23.328;2023-05-19T11:39:44;93079.38;;;22.19;47.31
6198;BME280;3132;42.622;23.328;2023-05-19T11:42:10;93073.53;;;21.62;46.91
6198;BME280;3132;42.622;23.328;2023-05-19T11:44:36;93079.41;;;21.44;50.19
6198;BME280;3132;42.622;23.328;2023-05-19T11:47:03;93089.38;;;21.11;49.28
6198;BME280;3132;42.622;23.328;2023-05-19T11:49:29;93113.41;;;20.37;51.85
6198;BME280;3132;42.622;23.328;2023-05-19T11:51:55;93117.81;;;18.16;71.88
6198;BME280;3132;42.622;23.328;2023-05-19T11:54:31;93116.72;;;16.04;93.49
6198;BME280;3132;42.622;23.328;2023-05-19T11:57:01;93158.88;;;14.41;100.00
6198;BME280;3132;42.622;23.328;2023-05-19T11:59:34;93160.88;;;13.20;100.00
6198;BME280;3132;42.622;23.328;2023-05-19T12:04:41;93135.34;;;12.54;100.00
6198;BME280;3132;42.622;23.328;2023-05-19T12:07:06;93129.91;;;12.74;100.00
6198;BME280;3132;42.622;23.328;2023-05-19T12:09:32;93151.34;;;13.05;100.00
6198;BME280;3132;42.622;23.328;2023-05-19T12:11:57;93169.81;;;13.37;100.00
6198;BME280;3132;42.622;23.328;2023-05-19T12:14:25;93183.66;;;13.43;100.00
6198;BME280;3132;42.622;23.328;2023-05-19T12:16:50;93162.22;;;13.36;100.00
6198;BME280;3132;42.622;23.328;2023-05-19T12:19:16;93183.63;;;13.66;100.00
6198;BME280;3132;42.622;23.328;2023-05-19T12:21:41;93193.84;;;13.86;100.00
6198;BME280;3132;42.622;23.328;2023-05-19T12:24:08;93197.44;;;13.53;100.00
6198;BME280;3132;42.622;23.328;2023-05-19T12:26:34;93181.75;;;13.48;100.00
6198;BME280;3132;42.622;23.328;2023-05-19T12:29:03;93112.00;;;13.05;100.00
6198;BME280;3132;42.622;23.328;2023-05-19T12:31:29;93157.28;;;13.53;100.00
6198;BME280;3132;42.622;23.328;2023-05-19T12:33:55;93142.56;;;13.57;100.00
6198;BME280;3132;42.622;23.328;2023-05-19T12:36:22;93140.44;;;13.77;100.00
6198;BME280;3132;42.622;23.328;2023-05-19T12:38:52;93132.66;;;14.04;100.00
6198;BME280;3132;42.622;23.328;2023-05-19T12:41:18;93111.78;;;14.45;100.00
6198;BME280;3132;42.622;23.328;2023-05-19T12:43:43;93119.75;;;14.40;100.00
6198;BME280;3132;42.622;23.328;2023-05-19T12:46:12;93087.69;;;14.57;100.00
6198;BME280;3132;42.622;23.328;2023-05-19T12:48:44;93121.19;;;14.92;100.00
6198;BME280;3132;42.622;23.328;2023-05-19T12:51:16;93106.97;;;14.93;100.00
6198;BME280;3132;42.622;23.328;2023-05-19T12:53:42;93094.13;;;14.78;100.00
6198;BME280;3132;42.622;23.328;2023-05-19T12:56:11;93107.47;;;14.68;100.00
6198;BME280;3132;42.622;23.328;2023-05-19T12:58:38;93098.53;;;14.96;100.00
6198;BME280;3132;42.622;23.328;2023-05-19T13:01:05;93081.44;;;15.07;100.00
6198;BME280;3132;42.622;23.328;2023-05-19T13:03:30;93098.19;;;15.38;100.00
6198;BME280;3132;42.622;23.328;2023-05-19T13:05:56;93098.47;;;15.85;100.00
6198;BME280;3132;42.622;23.328;2023-05-19T13:08:23;93096.19;;;16.15;100.00
6198;BME280;3132;42.622;23.328;2023-05-19T13:10:49;93084.16;;;16.44;100.00
6198;BME280;3132;42.622;23.328;2023-05-19T13:13:15;93087.28;;;16.55;100.00
6198;BME280;3132;42.622;23.328;2023-05-19T13:15:42;93082.75;;;16.77;99.90
6198;BME280;3132;42.622;23.328;2023-05-19T13:18:09;93091.81;;;16.93;100.00
6198;BME280;3132;42.622;23.328;2023-05-19T13:20:36;93085.16;;;16.96;100.00
6198;BME280;3132;42.622;23.328;2023-05-19T13:23:02;93083.38;;;16.74;99.44
6198;BME280;3132;42.622;23.328;2023-05-19T13:25:28;93089.69;;;16.65;100.00
6198;BME280;3132;42.622;23.328;2023-05-19T13:27:55;93089.88;;;15.80;100.00
6198;BME280;3132;42.622;23.328;2023-05-19T13:30:21;93085.28;;;15.63;100.00